sensor_id;sensor_type;location;lat;lon;timestamp;pressure;altitude;pressure_sealevel;temperature;humidity
33731;BME280;22931;48.636;9.000;2023-08-01T00:00:34;95113.28;;;21.30;56.23
33731;BME280;22931;48.636;9.000;2023-08-01T00:05:44;95104.50;;;21.30;56.23
33731;BME280;22931;48.636;9.000;2023-08-01T00:10:57;95086.19;;;21.28;55.98
33731;BME280;22931;48.636;9.000;2023-08-01T00:16:08;95080.53;;;21.26;56.46
33731;BME280;22931;48.636;9.000;2023-08-01T00:21:17;95076.78;;;21.24;56.31
33731;BME280;22931;48.636;9.000;2023-08-01T00:26:27;95066.06;;;21.24;56.52
33731;BME280;22931;48.636;9.000;2023-08-01T00:31:34;95059.94;;;21.23;56.43
33731;BME280;22931;48.636;9.000;2023-08-01T00:36:42;95059.63;;;21.21;56.06
33731;BME280;22931;48.636;9.000;2023-08-01T00:41:52;95055.75;;;21.22;56.95
33731;BME280;22931;48.636;9.000;2023-08-01T00:47:00;95037.91;;;21.19;56.14
33731;BME280;22931;48.636;9.000;2023-08-01T00:52:09;95040.25;;;21.17;56.49
33731;BME280;22931;48.636;9.000;2023-08-01T00:57:21;95031.78;;;21.19;56.48
33731;BME280;22931;48.636;9.000;2023-08-01T01:02:28;95028.69;;;21.20;56.30
33731;BME280;22931;48.636;9.000;2023-08-01T01:07:37;95040.91;;;21.21;56.21
33731;BME280;22931;48.636;9.000;2023-08-01T01:12:48;95040.06;;;21.24;56.65
33731;BME280;22931;48.636;9.000;2023-08-01T01:17:58;95023.25;;;21.24;57.16
33731;BME280;22931;48.636;9.000;2023-08-01T01:23:09;94999.69;;;21.19;57.02
33731;BME280;22931;48.636;9.000;2023-08-01T01:28:18;94978.88;;;21.10;56.88
33731;BME280;22931;48.636;9.000;2023-08-01T01:33:27;94975.56;;;21.06;56.93
33731;BME280;22931;48.636;9.000;2023-08-01T01:38:37;94982.47;;;21.03;57.67
33731;BME280;22931;48.636;9.000;2023-08-01T01:43:45;94964.25;;;20.98;56.83
33731;BME280;22931;48.636;9.000;2023-08-01T01:48:52;94944.13;;;20.94;57.00
33731;BME280;22931;48.636;9.000;2023-08-01T01:54:02;94938.34;;;20.95;57.43
33731;BME280;22931;48.636;9.000;2023-08-01T01:59:10;94920.16;;;20.90;57.42
33731;BME280;22931;48.636;9.000;2023-08-01T02:04:18;94925.53;;;20.90;57.80
33731;BME280;22931;48.636;9.000;2023-08-01T02:09:28;94923.56;;;20.91;57.54
33731;BME280;22931;48.636;9.000;2023-08-01T02:14:36;94912.56;;;20.89;57.49
33731;BME280;22931;48.636;9.000;2023-08-01T02:19:44;94912.22;;;20.87;58.07
33731;BME280;22931;48.636;9.000;2023-08-01T02:24:54;94920.91;;;20.91;57.58
33731;BME280;22931;48.636;9.000;2023-08-01T02:30:02;94925.94;;;20.89;57.75
33731;BME280;22931;48.636;9.000;2023-08-01T02:35:10;94921.34;;;20.89;57.50
33731;BME280;22931;48.636;9.000;2023-08-01T02:40:20;94914.81;;;20.90;58.22
33731;BME280;22931;48.636;9.000;2023-08-01T02:45:28;94918.22;;;20.91;58.18
33731;BME280;22931;48.636;9.000;2023-08-01T02:50:35;94900.25;;;20.91;57.77
33731;BME280;22931;48.636;9.000;2023-08-01T02:55:46;94904.00;;;20.94;57.72
33731;BME280;22931;48.636;9.000;2023-08-01T03:00:54;94912.34;;;20.96;58.17
33731;BME280;22931;48.636;9.000;2023-08-01T03:06:01;94912.28;;;20.99;57.90
33731;BME280;22931;48.636;9.000;2023-08-01T03:11:11;94908.00;;;21.02;58.03
33731;BME280;22931;48.636;9.000;2023-08-01T03:16:19;94905.22;;;21.05;57.91
33731;BME280;22931;48.636;9.000;2023-08-01T03:21:27;94904.06;;;21.07;57.59
33731;BME280;22931;48.636;9.000;2023-08-01T03:26:37;94898.94;;;21.12;58.02
33731;BME280;22931;48.636;9.000;2023-08-01T03:31:45;94902.69;;;21.15;58.08
33731;BME280;22931;48.636;9.000;2023-08-01T03:36:53;94905.69;;;21.17;57.71
33731;BME280;22931;48.636;9.000;2023-08-01T03:42:03;94907.09;;;21.21;57.68
33731;BME280;22931;48.636;9.000;2023-08-01T03:47:11;94921.97;;;21.22;57.70
33731;BME280;22931;48.636;9.000;2023-08-01T03:52:19;94938.00;;;21.22;57.58
33731;BME280;22931;48.636;9.000;2023-08-01T03:57:29;94926.16;;;21.23;57.88
33731;BME280;22931;48.636;9.000;2023-08-01T04:02:39;94925.06;;;21.21;57.83
33731;BME280;22931;48.636;9.000;2023-08-01T04:07:51;94921.63;;;21.20;57.82
33731;BME280;22931;48.636;9.000;2023-08-01T04:13:02;94918.97;;;21.20;57.59
33731;BME280;22931;48.636;9.000;2023-08-01T04:18:10;94889.22;;;21.18;57.44
33731;BME280;22931;48.636;9.000;2023-08-01T04:23:18;94870.91;;;21.17;58.04
33731;BME280;22931;48.636;9.000;2023-08-01T04:28:28;94845.22;;;21.19;57.78
33731;BME280;22931;48.636;9.000;2023-08-01T04:33:36;94833.00;;;21.18;57.94
33731;BME280;22931;48.636;9.000;2023-08-01T04:38:43;94763.44;;;21.18;57.50
33731;BME280;22931;48.636;9.000;2023-08-01T04:43:53;94755.72;;;21.20;57.84
33731;BME280;22931;48.636;9.000;2023-08-01T04:49:01;94734.75;;;21.19;57.61
33731;BME280;22931;48.636;9.000;2023-08-01T04:54:09;94716.03;;;21.19;57.32
33731;BME280;22931;48.636;9.000;2023-08-01T04:59:19;94710.69;;;21.19;58.31
33731;BME280;22931;48.636;9.000;2023-08-01T05:04:26;94714.53;;;21.18;57.87
33731;BME280;22931;48.636;9.000;2023-08-01T05:09:34;94766.56;;;21.17;57.27
33731;BME280;22931;48.636;9.000;2023-08-01T05:14:44;94729.41;;;21.19;57.72
33731;BME280;22931;48.636;9.000;2023-08-01T05:19:52;94736.69;;;21.18;57.23
33731;BME280;22931;48.636;9.000;2023-08-01T05:25:00;94733.69;;;21.16;57.31
33731;BME280;22931;48.636;9.000;2023-08-01T05:30:12;94763.03;;;21.20;57.51
33731;BME280;22931;48.636;9.000;2023-08-01T05:35:20;94771.47;;;21.18;57.56
33731;BME280;22931;48.636;9.000;2023-08-01T05:40:38;94777.81;;;21.24;57.00
33731;BME280;22931;48.636;9.000;2023-08-01T05:46:17;94782.41;;;21.24;56.85
33731;BME280;22931;48.636;9.000;2023-08-01T05:51:27;94777.81;;;21.24;57.29
33731;BME280;22931;48.636;9.000;2023-08-01T05:56:34;94790.75;;;21.26;56.89
33731;BME280;22931;48.636;9.000;2023-08-01T06:01:46;94794.03;;;21.30;57.08
33731;BME280;22931;48.636;9.000;2023-08-01T06:06:54;94802.81;;;21.30;57.33
33731;BME280;22931;48.636;9.000;2023-08-01T06:12:02;94805.19;;;21.28;57.07
33731;BME280;22931;48.636;9.000;2023-08-01T06:17:14;94805.81;;;21.32;57.05
33731;BME280;22931;48.636;9.000;2023-08-01T06:22:22;94789.13;;;21.28;56.98
33731;BME280;22931;48.636;9.000;2023-08-01T06:27:30;94807.66;;;21.23;56.83
33731;BME280;22931;48.636;9.000;2023-08-01T06:32:40;94805.09;;;21.19;56.89
33731;BME280;22931;48.636;9.000;2023-08-01T06:37:47;94810.97;;;21.14;57.08
33731;BME280;22931;48.636;9.000;2023-08-01T06:42:55;94810.31;;;21.10;57.09
33731;BME280;22931;48.636;9.000;2023-08-01T06:48:05;94824.88;;;21.09;56.85
33731;BME280;22931;48.636;9.000;2023-08-01T06:53:13;94813.56;;;21.05;56.65
33731;BME280;22931;48.636;9.000;2023-08-01T06:58:21;94808.25;;;21.01;57.44
33731;BME280;22931;48.636;9.000;2023-08-01T07:03:31;94811.69;;;21.02;57.55
33731;BME280;22931;48.636;9.000;2023-08-01T07:08:39;94803.16;;;21.20;56.65
33731;BME280;22931;48.636;9.000;2023-08-01T07:13:47;94816.22;;;21.05;56.83
33731;BME280;22931;48.636;9.000;2023-08-01T07:18:59;94811.59;;;21.05;56.91
33731;BME280;22931;48.636;9.000;2023-08-01T07:24:07;94813.59;;;21.01;57.36
33731;BME280;22931;48.636;9.000;2023-08-01T07:29:14;94811.38;;;21.00;57.51
33731;BME280;22931;48.636;9.000;2023-08-01T07:34:25;94829.66;;;21.01;57.36
33731;BME280;22931;48.636;9.000;2023-08-01T07:39:33;94817.44;;;21.00;57.62
33731;BME280;22931;48.636;9.000;2023-08-01T07:44:41;94823.75;;;20.94;57.72
33731;BME280;22931;48.636;9.000;2023-08-01T07:49:52;94822.47;;;20.86;57.57
33731;BME280;22931;48.636;9.000;2023-08-01T07:55:00;94833.88;;;20.74;57.55
33731;BME280;22931;48.636;9.000;2023-08-01T08:00:09;94846.16;;;20.59;58.01
33731;BME280;22931;48.636;9.000;2023-08-01T08:05:19;94823.47;;;20.51;59.46
33731;BME280;22931;48.636;9.000;2023-08-01T08:10:27;94824.19;;;20.38;58.95
33731;BME280;22931;48.636;9.000;2023-08-01T08:15:40;94808.53;;;20.24;59.46
33731;BME280;22931;48.636;9.000;2023-08-01T08:20:50;94811.34;;;20.17;60.13
33731;BME280;22931;48.636;9.000;2023-08-01T08:25:58;94824.16;;;20.10;59.64
33731;BME280;22931;48.636;9.000;2023-08-01T08:31:05;94834.91;;;20.06;59.31
33731;BME280;22931;48.636;9.000;2023-08-01T08:36:16;94825.72;;;20.07;60.38
33731;BME280;22931;48.636;9.000;2023-08-01T08:41:38;94840.00;;;20.17;60.87
33731;BME280;22931;48.636;9.000;2023-08-01T08:47:03;94848.75;;;20.17;60.73
33731;BME280;22931;48.636;9.000;2023-08-01T08:52:14;94848.31;;;20.19;61.02
33731;BME280;22931;48.636;9.000;2023-08-01T08:57:22;94842.56;;;20.20;60.71
33731;BME280;22931;48.636;9.000;2023-08-01T09:02:32;94824.97;;;20.23;60.96
33731;BME280;22931;48.636;9.000;2023-08-01T09:07:47;94829.03;;;20.27;61.61
33731;BME280;22931;48.636;9.000;2023-08-01T09:13:01;94838.66;;;20.25;62.21
33731;BME280;22931;48.636;9.000;2023-08-01T09:18:09;94835.97;;;20.25;61.99
33731;BME280;22931;48.636;9.000;2023-08-01T09:23:19;94851.09;;;20.31;62.95
33731;BME280;22931;48.636;9.000;2023-08-01T09:28:30;94855.25;;;20.32;62.64
33731;BME280;22931;48.636;9.000;2023-08-01T09:33:38;94852.81;;;20.38;62.72
33731;BME280;22931;48.636;9.000;2023-08-01T09:38:51;94863.38;;;20.58;62.91
33731;BME280;22931;48.636;9.000;2023-08-01T09:44:00;94879.47;;;20.42;62.21
33731;BME280;22931;48.636;9.000;2023-08-01T09:49:08;94865.75;;;20.39;62.67
33731;BME280;22931;48.636;9.000;2023-08-01T09:54:22;94874.00;;;20.45;63.09
33731;BME280;22931;48.636;9.000;2023-08-01T09:59:32;94872.09;;;20.46;63.24
33731;BME280;22931;48.636;9.000;2023-08-01T10:04:45;94872.75;;;20.50;63.36
33731;BME280;22931;48.636;9.000;2023-08-01T10:10:02;94870.75;;;20.54;64.56
33731;BME280;22931;48.636;9.000;2023-08-01T10:28:30;94869.00;;;20.76;63.42
33731;BME280;22931;48.636;9.000;2023-08-01T10:34:11;94879.91;;;20.81;64.32
33731;BME280;22931;48.636;9.000;2023-08-01T10:39:39;94885.91;;;20.85;64.04
33731;BME280;22931;48.636;9.000;2023-08-01T10:45:23;94877.81;;;21.01;65.19
33731;BME280;22931;48.636;9.000;2023-08-01T10:50:37;94879.59;;;21.21;64.83
33731;BME280;22931;48.636;9.000;2023-08-01T10:55:49;94884.22;;;21.45;64.94
33731;BME280;22931;48.636;9.000;2023-08-01T11:01:00;94909.56;;;21.66;64.24
33731;BME280;22931;48.636;9.000;2023-08-01T11:06:09;94894.03;;;21.73;63.07
33731;BME280;22931;48.636;9.000;2023-08-01T11:11:17;94919.22;;;21.76;61.64
33731;BME280;22931;48.636;9.000;2023-08-01T11:16:27;94922.13;;;21.82;61.27
33731;BME280;22931;48.636;9.000;2023-08-01T11:21:35;94928.97;;;21.83;61.24
33731;BME280;22931;48.636;9.000;2023-08-01T11:26:44;94938.19;;;21.82;60.25
33731;BME280;22931;48.636;9.000;2023-08-01T11:31:56;94933.84;;;21.88;60.52
33731;BME280;22931;48.636;9.000;2023-08-01T11:37:05;94927.06;;;21.96;60.11
33731;BME280;22931;48.636;9.000;2023-08-01T11:42:16;94944.94;;;22.11;59.81
33731;BME280;22931;48.636;9.000;2023-08-01T11:47:26;94956.06;;;22.22;59.31
33731;BME280;22931;48.636;9.000;2023-08-01T11:52:35;94956.72;;;22.26;59.34
33731;BME280;22931;48.636;9.000;2023-08-01T11:57:52;94956.81;;;22.35;59.13
33731;BME280;22931;48.636;9.000;2023-08-01T12:03:07;94966.84;;;22.44;58.62
33731;BME280;22931;48.636;9.000;2023-08-01T12:08:18;94960.53;;;22.51;58.26
33731;BME280;22931;48.636;9.000;2023-08-01T12:13:29;94953.22;;;22.64;57.94
33731;BME280;22931;48.636;9.000;2023-08-01T12:18:39;94948.66;;;22.73;57.47
33731;BME280;22931;48.636;9.000;2023-08-01T12:24:04;94955.00;;;22.79;57.29
33731;BME280;22931;48.636;9.000;2023-08-01T12:29:12;94954.75;;;22.86;56.90
33731;BME280;22931;48.636;9.000;2023-08-01T12:34:23;94952.44;;;22.97;56.37
33731;BME280;22931;48.636;9.000;2023-08-01T12:39:30;94952.50;;;23.07;56.26
33731;BME280;22931;48.636;9.000;2023-08-01T12:44:39;94941.53;;;23.14;56.45
33731;BME280;22931;48.636;9.000;2023-08-01T12:49:49;94945.75;;;23.24;56.06
33731;BME280;22931;48.636;9.000;2023-08-01T12:54:57;94958.41;;;23.36;55.85
33731;BME280;22931;48.636;9.000;2023-08-01T13:00:06;94968.88;;;23.43;54.96
33731;BME280;22931;48.636;9.000;2023-08-01T13:05:17;94968.16;;;23.51;54.52
33731;BME280;22931;48.636;9.000;2023-08-01T13:10:25;94956.84;;;23.56;54.17
33731;BME280;22931;48.636;9.000;2023-08-01T13:15:33;94979.72;;;23.61;53.70
33731;BME280;22931;48.636;9.000;2023-08-01T13:20:43;94982.84;;;23.59;53.93
33731;BME280;22931;48.636;9.000;2023-08-01T13:25:51;94968.97;;;23.61;53.89
33731;BME280;22931;48.636;9.000;2023-08-01T13:30:59;94969.91;;;23.67;53.80
33731;BME280;22931;48.636;9.000;2023-08-01T13:36:32;94978.59;;;23.80;53.33
33731;BME280;22931;48.636;9.000;2023-08-01T17:48:39;95092.53;;;23.27;48.01
33731;BME280;22931;48.636;9.000;2023-08-01T19:05:10;95179.94;;;21.86;46.31
33731;BME280;22931;48.636;9.000;2023-08-01T19:29:19;95222.00;;;21.73;48.14
33731;BME280;22931;48.636;9.000;2023-08-01T19:34:44;95238.63;;;21.80;47.79
33731;BME280;22931;48.636;9.000;2023-08-01T19:40:02;95232.03;;;21.85;48.15
33731;BME280;22931;48.636;9.000;2023-08-01T19:45:17;95246.19;;;21.85;47.79
33731;BME280;22931;48.636;9.000;2023-08-01T19:50:28;95261.50;;;21.85;47.81
33731;BME280;22931;48.636;9.000;2023-08-01T19:55:42;95266.44;;;21.86;47.87
33731;BME280;22931;48.636;9.000;2023-08-01T20:01:13;95264.75;;;21.92;47.70
33731;BME280;22931;48.636;9.000;2023-08-01T20:06:51;95271.03;;;21.86;48.09
33731;BME280;22931;48.636;9.000;2023-08-01T20:12:16;95275.28;;;21.83;48.59
33731;BME280;22931;48.636;9.000;2023-08-01T20:29:51;95271.72;;;21.57;48.41
33731;BME280;22931;48.636;9.000;2023-08-01T20:35:03;95289.13;;;21.49;48.67
33731;BME280;22931;48.636;9.000;2023-08-01T20:40:20;95281.75;;;21.37;48.88
33731;BME280;22931;48.636;9.000;2023-08-01T20:45:36;95286.44;;;21.33;49.05
33731;BME280;22931;48.636;9.000;2023-08-01T20:50:52;95277.06;;;21.25;48.80
33731;BME280;22931;48.636;9.000;2023-08-01T20:56:10;95277.31;;;21.15;48.73
33731;BME280;22931;48.636;9.000;2023-08-01T21:01:31;95295.84;;;21.05;49.04
33731;BME280;22931;48.636;9.000;2023-08-01T21:06:55;95293.88;;;20.90;48.85
33731;BME280;22931;48.636;9.000;2023-08-01T21:12:03;95295.19;;;20.82;49.69
33731;BME280;22931;48.636;9.000;2023-08-01T21:17:16;95300.59;;;20.78;49.46
33731;BME280;22931;48.636;9.000;2023-08-01T21:22:39;95298.34;;;20.77;49.51
33731;BME280;22931;48.636;9.000;2023-08-01T21:28:08;95286.66;;;20.71;49.71
33731;BME280;22931;48.636;9.000;2023-08-01T21:33:23;95293.34;;;20.59;49.60
33731;BME280;22931;48.636;9.000;2023-08-01T21:38:44;95288.50;;;20.54;49.82
33731;BME280;22931;48.636;9.000;2023-08-01T21:44:03;95288.38;;;20.42;50.03
33731;BME280;22931;48.636;9.000;2023-08-01T22:01:20;95270.88;;;20.17;50.75
33731;BME280;22931;48.636;9.000;2023-08-01T22:13:20;95273.41;;;20.05;50.79
33731;BME280;22931;48.636;9.000;2023-08-01T22:31:38;95263.78;;;19.88;50.72
33731;BME280;22931;48.636;9.000;2023-08-01T22:38:10;95266.16;;;19.82;51.52
33731;BME280;22931;48.636;9.000;2023-08-01T22:43:55;95264.75;;;19.74;51.75
33731;BME280;22931;48.636;9.000;2023-08-01T22:49:38;95259.91;;;19.69;51.56
33731;BME280;22931;48.636;9.000;2023-08-01T22:55:37;95270.22;;;19.67;52.17
33731;BME280;22931;48.636;9.000;2023-08-01T23:01:08;95274.25;;;19.55;51.77
33731;BME280;22931;48.636;9.000;2023-08-01T23:17:48;95259.50;;;19.47;52.43
33731;BME280;22931;48.636;9.000;2023-08-01T23:54:09;95236.88;;;19.55;52.71
33731;BME280;22931;48.636;9.000;2023-08-01T23:59:34;95243.03;;;19.52;52.66
